Terminal Aerodrome Forecast
Issued by NWS Houston/Galveston TX

Home | Current Version | Previous Version | Text Only | Print | Product List | Glossary On
Versions: 1 2 3 4 5 6 7 8 9 10 11 12 13 14 15 16 17 18 19 20 21 22 23 24 25 26 27 28 29 30 31 32 33 34 35 36 37 38 39
000
FTUS44 KHGX 270527
TAFHOU
TAF
KHOU 270527Z 2706/2806 06010KT P6SM VCSH BKN015 OVC050
      TEMPO 2706/2710 5SM SHRA
     FM271000 16009KT P6SM VCTS SCT008CB OVC015
     FM271400 16012G22KT P6SM OVC015
     FM271800 16014G24KT P6SM VCTS OVC025CB
     FM280100 15010KT P6SM SCT015 BKN250=

USA.gov is the U.S. government's official web portal to all federal, state and local government web resources and services.